Allenville, Illinois
Current Conditions -  °F | °C
As of 4:53 PM on Monday 22 Dec 2014 (Local Time) from KMTO Reporting Station
Light Rain Light Rain  
Wind Chill:   Ceiling: 800
Heat Index:   Visibility: 5mi
Dew Point:   Wind: 16mph
Humidity: 93%   Direction: 140°SE
Pressure: 29.62"   Gusts: NA
Location:  39.5872°N, 88.5835°W
Report Text: KMTO 222253Z AUTO 14014KT 5SM -RA BR OVC008 08/07 A2962 RMK AO2 CIG 005V012 SLP034 P0002 T00780067
Loading
Personal Weather Stations






























Interactive Weather Map New forecast layout! Learn more

10-Day Weather Forecast

Advertisements
Track Severe Weather on mobile